Time;durP1;ratioP1;P1;durP2;ratioP2;P2;SDS_P1;SDS_P2;PMS_P1;PMS_P2;Temp;Humidity;BMP_temperature;BMP_pressure;BME280_temperature;BME280_humidity;BME280_pressure;Samples;Min_cycle;Max_cycle;Signal;HPM_P1;HPM_P2
2021/12/20 00:02:06;;;;;;;2.30;2.07;;;6.10;99.90;;;;;;5014752;28;20444;-80
2021/12/20 00:04:52;;;;;;;4.73;2.50;;;6.20;99.90;;;;;;5014017;28;20409;-80
2021/12/20 00:07:36;;;;;;;4.00;1.97;;;6.20;99.90;;;;;;5014391;28;20401;-80
2021/12/20 00:10:21;;;;;;;5.20;1.93;;;6.30;99.90;;;;;;5015021;28;20371;-80
2021/12/20 00:13:05;;;;;;;2.13;2.03;;;6.30;99.90;;;;;;5016612;28;20467;-77
2021/12/20 00:15:49;;;;;;;2.40;2.20;;;6.30;99.90;;;;;;5019927;28;20392;-78
2021/12/20 00:18:34;;;;;;;4.17;2.43;;;6.30;99.90;;;;;;5020039;28;20424;-78
2021/12/20 00:21:18;;;;;;;2.00;1.80;;;6.30;99.90;;;;;;5018095;28;20454;-80
2021/12/20 00:24:04;;;;;;;3.53;2.30;;;6.30;99.90;;;;;;5014438;28;20405;-80
2021/12/20 00:26:48;;;;;;;2.70;1.93;;;6.30;99.90;;;;;;4998558;28;20396;-80
2021/12/20 00:29:32;;;;;;;4.47;2.37;;;6.20;99.90;;;;;;5015437;28;20360;-80
2021/12/20 00:32:17;;;;;;;3.53;1.90;;;6.20;99.90;;;;;;5018770;28;20403;-80
2021/12/20 00:35:03;;;;;;;2.23;2.03;;;6.30;99.90;;;;;;5019078;28;20408;-80
2021/12/20 00:40:48;;;;;;;2.53;2.00;;;6.10;99.90;;;;;;5015203;28;20444;-79
2021/12/20 00:43:33;;;;;;;2.63;2.10;;;5.90;99.90;;;;;;5013109;28;20440;-80
2021/12/20 00:46:17;;;;;;;2.53;2.10;;;5.90;99.90;;;;;;5012558;28;20381;-79
2021/12/20 00:49:01;;;;;;;3.90;2.20;;;5.80;99.90;;;;;;5012983;28;20701;-80
2021/12/20 00:51:45;;;;;;;2.50;2.30;;;5.80;99.90;;;;;;5012686;28;20424;-80
2021/12/20 00:54:29;;;;;;;2.03;1.53;;;5.90;99.90;;;;;;4998208;28;20392;-80
2021/12/20 00:57:13;;;;;;;2.47;2.27;;;6.00;99.90;;;;;;4999158;28;20384;-80
2021/12/20 00:59:57;;;;;;;4.07;2.60;;;6.10;99.90;;;;;;5013058;28;20363;-79
2021/12/20 01:02:42;;;;;;;2.20;2.00;;;6.10;99.90;;;;;;5013494;28;20482;-80
2021/12/20 01:05:27;;;;;;;3.40;2.50;;;6.20;99.90;;;;;;5013277;28;20373;-80
2021/12/20 01:08:12;;;;;;;2.73;2.53;;;6.20;99.90;;;;;;5012887;28;20392;-80
2021/12/20 01:10:56;;;;;;;1.90;1.80;;;6.30;99.90;;;;;;5013703;28;20398;-79
2021/12/20 01:13:41;;;;;;;2.90;2.20;;;6.30;99.90;;;;;;5013514;28;20363;-80
2021/12/20 01:16:31;;;;;;;3.93;2.80;;;6.30;99.90;;;;;;5010561;28;20367;-80
2021/12/20 01:19:16;;;;;;;3.97;2.73;;;6.30;99.90;;;;;;5018847;28;20391;-79
2021/12/20 01:22:02;;;;;;;2.93;2.63;;;6.30;99.90;;;;;;4972677;28;20462;-80
2021/12/20 01:24:47;;;;;;;4.03;2.50;;;6.20;99.90;;;;;;5013001;28;20370;-80
2021/12/20 01:27:31;;;;;;;2.70;2.50;;;6.20;99.90;;;;;;5013656;28;20432;-80
2021/12/20 01:30:17;;;;;;;7.73;2.87;;;6.20;99.90;;;;;;5013149;28;20396;-80
2021/12/20 01:33:02;;;;;;;3.10;2.87;;;6.10;99.90;;;;;;4999970;28;20405;-80
2021/12/20 01:35:46;;;;;;;4.67;2.63;;;6.10;99.90;;;;;;5018708;28;20379;-79
2021/12/20 01:38:30;;;;;;;3.50;2.20;;;6.10;99.90;;;;;;5018495;28;20371;-77
2021/12/20 01:41:15;;;;;;;2.53;2.30;;;6.10;99.90;;;;;;5018039;28;20460;-79
2021/12/20 01:43:59;;;;;;;3.37;2.57;;;6.10;99.90;;;;;;5013021;28;20392;-79
2021/12/20 01:46:44;;;;;;;2.50;2.23;;;6.10;99.90;;;;;;5012826;28;20416;-79
2021/12/20 01:49:31;;;;;;;3.23;2.60;;;6.10;99.90;;;;;;5001328;28;20391;-79
2021/12/20 01:52:19;;;;;;;6.53;2.53;;;6.00;99.90;;;;;;5001172;28;20396;-79
2021/12/20 01:55:03;;;;;;;2.33;2.10;;;6.00;99.90;;;;;;4996545;28;20396;-78
2021/12/20 01:57:49;;;;;;;6.80;2.57;;;6.00;99.90;;;;;;5009544;28;20391;-79
2021/12/20 02:00:34;;;;;;;2.93;2.30;;;6.00;99.90;;;;;;5005609;28;20440;-79
2021/12/20 02:03:18;;;;;;;7.33;2.33;;;6.00;99.90;;;;;;5009964;28;20526;-80
2021/12/20 02:06:06;;;;;;;2.13;1.90;;;6.00;99.90;;;;;;5011534;28;20428;-80
2021/12/20 02:08:51;;;;;;;4.60;2.10;;;6.00;99.90;;;;;;5010558;28;20387;-80
2021/12/20 02:11:37;;;;;;;4.27;2.23;;;6.00;99.90;;;;;;5010321;28;20367;-80
2021/12/20 02:14:21;;;;;;;2.97;2.73;;;6.00;99.90;;;;;;5010639;28;20438;-80
2021/12/20 02:17:06;;;;;;;4.83;2.60;;;6.00;99.90;;;;;;5012112;28;20379;-80
2021/12/20 02:19:49;;;;;;;2.60;2.30;;;6.00;99.90;;;;;;5012434;28;20412;-80
2021/12/20 02:22:34;;;;;;;3.93;2.20;;;5.90;99.90;;;;;;5012306;28;20456;-80
2021/12/20 02:25:18;;;;;;;3.83;2.10;;;5.90;99.90;;;;;;5012827;28;20421;-80
2021/12/20 02:28:07;;;;;;;3.93;3.00;;;5.90;99.90;;;;;;5012182;28;20412;-80
2021/12/20 02:37:18;;;;;;;6.83;3.63;;;6.00;99.90;;;;;;5012273;28;20416;-80
2021/12/20 02:39:57;;;;;;;6.10;3.10;;;6.00;99.90;;;;;;5012551;28;20355;-80
2021/12/20 02:42:42;;;;;;;3.90;2.10;;;6.00;99.90;;;;;;5012372;28;20479;-80
2021/12/20 02:45:31;;;;;;;1.57;1.47;;;6.00;99.90;;;;;;5012424;28;20870;-80
2021/12/20 02:48:15;;;;;;;4.13;3.80;;;6.00;99.90;;;;;;5012453;28;20389;-80
2021/12/20 02:50:59;;;;;;;5.30;2.90;;;6.00;99.90;;;;;;5015390;28;20375;-80
2021/12/20 02:53:44;;;;;;;3.47;2.50;;;6.00;99.90;;;;;;5015857;28;20367;-80
2021/12/20 02:56:28;;;;;;;7.20;2.80;;;6.00;99.90;;;;;;5020605;28;20386;-78
2021/12/20 02:59:13;;;;;;;3.20;2.07;;;6.00;99.90;;;;;;5021520;28;20363;-79
2021/12/20 03:02:02;;;;;;;3.43;2.17;;;6.00;99.90;;;;;;5021319;28;20450;-77
2021/12/20 03:04:47;;;;;;;3.53;2.90;;;6.00;99.90;;;;;;5017558;28;20451;-80
2021/12/20 03:07:40;;;;;;;4.30;3.90;;;6.00;99.90;;;;;;5000707;28;20375;-80
2021/12/20 03:10:27;;;;;;;3.03;2.73;;;5.90;99.90;;;;;;5015437;28;20372;-79
2021/12/20 03:13:11;;;;;;;3.83;2.50;;;5.80;99.90;;;;;;5014274;28;20409;-77
2021/12/20 03:15:55;;;;;;;3.17;2.10;;;5.80;99.90;;;;;;5014546;28;20397;-79
2021/12/20 03:18:39;;;;;;;3.50;2.53;;;5.90;99.90;;;;;;5014885;28;20413;-80
2021/12/20 03:21:23;;;;;;;2.90;2.13;;;5.90;99.90;;;;;;5014289;28;20478;-80
2021/12/20 03:24:07;;;;;;;5.90;3.00;;;6.00;99.90;;;;;;4999482;28;20387;-80
2021/12/20 03:26:52;;;;;;;3.73;1.87;;;6.00;99.90;;;;;;5014548;28;20359;-80
2021/12/20 03:29:36;;;;;;;3.10;2.47;;;5.90;99.90;;;;;;5014241;28;20407;-80
2021/12/20 03:32:20;;;;;;;4.30;2.57;;;5.80;99.90;;;;;;5014058;28;20372;-80
2021/12/20 03:35:05;;;;;;;3.37;2.63;;;5.60;99.90;;;;;;5014367;28;20371;-80
2021/12/20 03:37:50;;;;;;;3.37;3.07;;;5.60;99.90;;;;;;5014285;28;20471;-80
2021/12/20 03:40:34;;;;;;;3.57;2.53;;;5.50;99.90;;;;;;5013599;28;20375;-80
2021/12/20 03:43:19;;;;;;;5.70;2.97;;;5.50;99.90;;;;;;5013318;28;20460;-80
2021/12/20 03:46:04;;;;;;;2.87;2.10;;;5.60;99.90;;;;;;5014048;28;20395;-80
2021/12/20 03:48:48;;;;;;;3.93;2.80;;;5.60;99.90;;;;;;5013333;28;20396;-80
2021/12/20 03:51:33;;;;;;;4.27;3.13;;;5.60;99.90;;;;;;5013864;28;20401;-80
2021/12/20 03:54:17;;;;;;;3.13;2.10;;;5.50;99.90;;;;;;5013542;28;20424;-80
2021/12/20 03:57:02;;;;;;;5.57;2.07;;;5.50;99.90;;;;;;5013682;28;20483;-80
2021/12/20 03:59:47;;;;;;;3.80;3.50;;;5.60;99.90;;;;;;5013153;28;20475;-80
2021/12/20 04:02:38;;;;;;;2.40;1.83;;;5.60;99.90;;;;;;5013377;28;20427;-79
2021/12/20 04:05:23;;;;;;;2.43;2.23;;;5.60;99.90;;;;;;5012706;28;20389;-79
2021/12/20 04:08:07;;;;;;;3.50;1.90;;;5.50;99.90;;;;;;5012926;28;20400;-79
2021/12/20 04:10:52;;;;;;;3.83;2.00;;;5.40;99.90;;;;;;5013075;28;20400;-80
2021/12/20 04:13:36;;;;;;;6.60;2.53;;;5.40;99.90;;;;;;4998582;28;20379;-80
2021/12/20 04:16:21;;;;;;;3.97;2.00;;;5.30;99.90;;;;;;4998119;28;20465;-80
2021/12/20 04:19:05;;;;;;;2.30;2.10;;;5.20;99.90;;;;;;5019984;28;20399;-80
2021/12/20 04:21:49;;;;;;;5.73;2.77;;;5.20;99.90;;;;;;5001739;28;20522;-80
2021/12/20 04:24:34;;;;;;;6.53;2.53;;;5.20;99.90;;;;;;5013381;28;20464;-80
2021/12/20 04:27:18;;;;;;;3.40;1.70;;;5.00;99.90;;;;;;5013631;28;20808;-80
2021/12/20 04:30:09;;;;;;;7.57;3.10;;;5.00;99.90;;;;;;5014014;28;20397;-80
2021/12/20 04:32:53;;;;;;;2.17;2.03;;;5.00;99.90;;;;;;5013015;28;20400;-80
2021/12/20 04:35:38;;;;;;;3.87;3.00;;;5.00;99.90;;;;;;5012846;28;20383;-80
2021/12/20 04:38:23;;;;;;;6.13;2.10;;;5.00;99.90;;;;;;5012495;28;20389;-80
2021/12/20 04:41:07;;;;;;;2.57;2.37;;;4.90;99.90;;;;;;5012846;28;20927;-79
2021/12/20 04:43:51;;;;;;;4.73;2.30;;;4.90;99.90;;;;;;5013087;28;20415;-80
2021/12/20 04:46:35;;;;;;;9.93;2.60;;;4.90;99.90;;;;;;5020663;28;20435;-79
2021/12/20 04:49:19;;;;;;;11.53;2.07;;;4.80;99.90;;;;;;4998115;28;20452;-79
2021/12/20 04:52:04;;;;;;;2.50;2.27;;;4.70;99.90;;;;;;5006884;28;20383;-78
2021/12/20 04:54:48;;;;;;;6.63;1.73;;;4.80;99.90;;;;;;5007945;28;20433;-79
2021/12/20 04:57:32;;;;;;;3.50;2.60;;;4.80;99.90;;;;;;5006515;28;20396;-78
2021/12/20 05:00:21;;;;;;;9.53;2.70;;;4.70;99.90;;;;;;5008905;28;20392;-79
2021/12/20 05:03:06;;;;;;;4.47;2.70;;;4.80;99.90;;;;;;5008523;28;20440;-79
2021/12/20 05:05:50;;;;;;;4.07;2.37;;;4.70;99.90;;;;;;5009171;28;20372;-79
2021/12/20 05:08:45;;;;;;;2.90;2.40;;;4.60;99.90;;;;;;5013179;28;20450;-80
2021/12/20 05:11:30;;;;;;;5.60;3.50;;;4.50;99.90;;;;;;5012101;28;20384;-79
2021/12/20 05:14:14;;;;;;;9.03;3.00;;;4.40;99.90;;;;;;5012816;28;20418;-80
2021/12/20 05:16:58;;;;;;;9.10;2.87;;;4.50;99.90;;;;;;5013503;28;20375;-80
2021/12/20 05:19:43;;;;;;;2.60;2.40;;;4.60;99.90;;;;;;5013012;28;20380;-80
2021/12/20 05:22:27;;;;;;;3.43;1.70;;;4.60;99.90;;;;;;5012777;28;20491;-80
2021/12/20 05:25:12;;;;;;;7.77;2.60;;;4.60;99.90;;;;;;5011712;28;20405;-79
2021/12/20 05:27:56;;;;;;;2.43;2.20;;;4.60;99.90;;;;;;5008371;28;20379;-79
2021/12/20 05:30:40;;;;;;;2.20;1.97;;;4.50;99.90;;;;;;5011618;28;20436;-79
2021/12/20 05:33:25;;;;;;;7.40;3.20;;;4.40;99.90;;;;;;5011076;28;20391;-79
2021/12/20 05:36:09;;;;;;;2.30;2.10;;;4.30;99.90;;;;;;5011752;28;20382;-79
2021/12/20 05:38:53;;;;;;;11.10;2.77;;;4.30;99.90;;;;;;5011586;28;20391;-79
2021/12/20 05:41:37;;;;;;;2.27;2.07;;;4.20;99.90;;;;;;5011752;28;20490;-79
2021/12/20 05:44:22;;;;;;;3.03;2.53;;;4.20;99.90;;;;;;5011551;28;20364;-79
2021/12/20 05:47:07;;;;;;;2.77;2.10;;;4.10;99.90;;;;;;5012265;28;20390;-79
2021/12/20 05:49:51;;;;;;;2.50;2.00;;;4.10;99.90;;;;;;5011537;28;20391;-79
2021/12/20 05:52:37;;;;;;;11.10;2.57;;;4.10;99.90;;;;;;5011905;28;20491;-79
2021/12/20 05:55:21;;;;;;;3.23;2.27;;;4.10;99.90;;;;;;5011475;28;20386;-79
2021/12/20 05:58:05;;;;;;;2.63;2.43;;;4.10;99.90;;;;;;5011236;28;20400;-79
2021/12/20 06:00:49;;;;;;;5.20;2.40;;;4.10;99.90;;;;;;5010758;28;20715;-79
2021/12/20 06:03:33;;;;;;;5.90;3.70;;;4.00;99.90;;;;;;5011219;28;20400;-78
2021/12/20 06:06:17;;;;;;;5.03;3.13;;;4.00;99.90;;;;;;5011638;28;20372;-79
2021/12/20 06:09:01;;;;;;;5.63;2.90;;;4.00;99.90;;;;;;5011630;28;20409;-79
2021/12/20 06:11:45;;;;;;;4.03;2.77;;;3.90;99.90;;;;;;5011776;28;20380;-79
2021/12/20 06:14:30;;;;;;;3.27;2.33;;;3.90;99.90;;;;;;5011542;28;20375;-79
2021/12/20 06:17:14;;;;;;;5.83;2.40;;;3.90;99.90;;;;;;5011347;28;20396;-79
2021/12/20 06:19:58;;;;;;;2.57;2.20;;;3.90;99.90;;;;;;5010087;28;20400;-79
2021/12/20 06:22:43;;;;;;;12.03;3.00;;;3.80;99.90;;;;;;5010369;28;20439;-79
2021/12/20 06:25:27;;;;;;;3.60;2.60;;;3.70;99.90;;;;;;4986211;28;20403;-78
2021/12/20 06:28:12;;;;;;;7.07;3.80;;;3.70;99.90;;;;;;5015317;28;20404;-80
2021/12/20 06:30:56;;;;;;;3.27;2.97;;;3.70;99.90;;;;;;5014142;28;20375;-79
2021/12/20 06:33:40;;;;;;;8.60;3.97;;;3.60;99.90;;;;;;4999957;28;20439;-79
2021/12/20 06:36:26;;;;;;;12.53;4.17;;;3.60;99.90;;;;;;5022891;28;20439;-79
2021/12/20 06:39:10;;;;;;;5.50;4.97;;;3.60;99.90;;;;;;5004215;28;20398;-79
2021/12/20 06:41:54;;;;;;;5.40;3.90;;;3.60;99.90;;;;;;5033689;28;20453;-79
2021/12/20 06:44:38;;;;;;;4.53;3.20;;;3.60;99.90;;;;;;5006543;28;20414;-79
2021/12/20 06:47:23;;;;;;;2.70;2.50;;;3.60;99.90;;;;;;5024028;28;21006;-78
2021/12/20 06:50:08;;;;;;;6.00;3.73;;;3.60;99.90;;;;;;4984272;28;20501;-79
2021/12/20 06:52:52;;;;;;;4.00;3.60;;;3.70;99.90;;;;;;5011417;28;20412;-78
2021/12/20 06:55:36;;;;;;;4.10;2.80;;;3.60;99.90;;;;;;5002792;28;20436;-80
2021/12/20 06:58:23;;;;;;;15.27;3.63;;;3.60;99.90;;;;;;4996348;28;20463;-79
2021/12/20 07:01:07;;;;;;;10.40;3.60;;;3.50;99.90;;;;;;5007933;28;20429;-79
2021/12/20 07:03:51;;;;;;;28.50;7.03;;;3.50;99.90;;;;;;4985806;28;20871;-80
2021/12/20 07:06:35;;;;;;;10.20;4.53;;;3.50;99.90;;;;;;4999501;28;20853;-80
2021/12/20 07:09:19;;;;;;;9.90;4.17;;;3.60;99.90;;;;;;4982960;28;20424;-80
2021/12/20 07:12:04;;;;;;;7.70;3.70;;;3.50;99.90;;;;;;5012859;28;20766;-80
2021/12/20 07:14:50;;;;;;;4.23;3.47;;;3.40;99.90;;;;;;4979876;28;20468;-80
2021/12/20 07:17:34;;;;;;;8.60;3.83;;;3.50;99.90;;;;;;4985325;28;20471;-80
2021/12/20 07:20:19;;;;;;;4.87;4.47;;;3.60;99.90;;;;;;4960534;28;20411;-80
2021/12/20 07:23:04;;;;;;;5.27;3.30;;;3.60;99.90;;;;;;4983955;28;20535;-79
2021/12/20 07:25:49;;;;;;;5.50;3.47;;;3.60;99.90;;;;;;4983511;28;20477;-79
2021/12/20 07:28:34;;;;;;;8.30;4.83;;;3.50;99.90;;;;;;4985850;28;20436;-78
2021/12/20 07:31:19;;;;;;;5.33;4.47;;;3.50;99.90;;;;;;4968342;28;20988;-79
2021/12/20 07:34:04;;;;;;;12.13;5.23;;;3.50;99.90;;;;;;4977357;28;20396;-79
2021/12/20 07:36:53;;;;;;;6.53;4.70;;;3.50;99.90;;;;;;4983142;28;20476;-79
2021/12/20 07:39:37;;;;;;;10.97;5.60;;;3.50;99.90;;;;;;4986445;28;20468;-80
2021/12/20 07:42:21;;;;;;;5.40;4.30;;;3.50;99.90;;;;;;4985794;28;20507;-77
2021/12/20 07:45:09;;;;;;;13.33;5.27;;;3.50;99.90;;;;;;5002536;28;20467;-79
2021/12/20 07:47:54;;;;;;;6.20;4.70;;;3.40;99.90;;;;;;4990439;28;20439;-77
2021/12/20 07:50:38;;;;;;;8.20;5.20;;;3.50;99.90;;;;;;4962713;28;20439;-79
2021/12/20 07:53:26;;;;;;;12.20;4.80;;;3.60;99.90;;;;;;4953829;28;21003;-79
2021/12/20 07:56:13;;;;;;;8.37;4.33;;;3.60;99.90;;;;;;4971488;28;20447;-79
2021/12/20 07:58:57;;;;;;;12.73;4.30;;;3.60;99.90;;;;;;4954159;28;20423;-79
2021/12/20 08:01:41;;;;;;;5.40;5.00;;;3.60;99.90;;;;;;4957464;28;20481;-78
2021/12/20 08:04:25;;;;;;;9.27;5.57;;;3.60;99.90;;;;;;4955974;28;21035;-79
2021/12/20 08:07:09;;;;;;;6.03;3.70;;;3.60;99.90;;;;;;4963733;28;20423;-79
2021/12/20 08:09:53;;;;;;;10.23;4.20;;;4.20;99.90;;;;;;4970914;28;21002;-79
2021/12/20 08:12:37;;;;;;;6.03;4.90;;;5.50;99.90;;;;;;4971916;28;20474;-80
2021/12/20 08:15:22;;;;;;;9.40;4.80;;;6.10;99.90;;;;;;4954527;28;20904;-80
2021/12/20 08:18:06;;;;;;;9.67;5.50;;;6.40;99.90;;;;;;4971716;28;20882;-79
2021/12/20 08:20:51;;;;;;;8.90;5.80;;;6.60;99.90;;;;;;5003416;28;20460;-80
2021/12/20 08:23:35;;;;;;;7.27;4.40;;;6.80;99.90;;;;;;5003942;28;20523;-80
2021/12/20 08:26:20;;;;;;;7.83;4.37;;;7.00;99.90;;;;;;5000452;28;20761;-80
2021/12/20 08:29:04;;;;;;;4.87;4.37;;;7.30;99.90;;;;;;5000315;28;20428;-80
2021/12/20 08:31:48;;;;;;;9.70;5.03;;;7.40;99.90;;;;;;4992327;28;20430;-80
2021/12/20 08:34:33;;;;;;;7.40;5.60;;;7.40;99.90;;;;;;4988816;28;20448;-80
2021/12/20 08:37:17;;;;;;;16.37;5.80;;;7.80;99.90;;;;;;5001253;28;20474;-79
2021/12/20 08:40:22;;;;;;;7.80;5.77;;;7.90;99.90;;;;;;5002155;28;20438;-79
2021/12/20 08:43:06;;;;;;;8.53;5.33;;;8.40;99.90;;;;;;4938238;28;21090;-81
2021/12/20 08:45:50;;;;;;;18.93;6.07;;;8.60;99.90;;;;;;4923888;29;20510;-80
2021/12/20 08:48:34;;;;;;;10.60;5.10;;;8.80;99.90;;;;;;4929969;29;20438;-80
2021/12/20 08:51:19;;;;;;;14.63;6.00;;;8.90;99.90;;;;;;4942786;29;20409;-81
2021/12/20 08:54:04;;;;;;;17.60;5.90;;;9.20;99.90;;;;;;4925085;28;20518;-80
2021/12/20 08:56:48;;;;;;;8.20;5.90;;;9.70;99.90;;;;;;4927383;29;20499;-80
2021/12/20 08:59:37;;;;;;;14.70;7.80;;;9.70;99.90;;;;;;4943556;29;20523;-80
2021/12/20 09:02:25;;;;;;;12.63;7.50;;;10.40;99.90;;;;;;4934505;29;20437;-79
2021/12/20 09:05:10;;;;;;;16.43;7.13;;;11.80;99.90;;;;;;4925722;29;20520;-81
2021/12/20 09:07:56;;;;;;;6.70;3.87;;;12.00;99.90;;;;;;4948572;29;20450;-80
2021/12/20 09:10:43;;;;;;;15.33;6.50;;;12.90;99.90;;;;;;4932608;29;20409;-80
2021/12/20 09:13:29;;;;;;;22.87;8.10;;;13.10;99.90;;;;;;4944977;28;20564;-80
2021/12/20 09:16:17;;;;;;;15.57;7.07;;;12.90;99.90;;;;;;4957427;28;20520;-80
2021/12/20 09:19:03;;;;;;;24.83;8.83;;;13.20;99.90;;;;;;4960494;28;20428;-80
2021/12/20 09:21:49;;;;;;;17.60;6.93;;;13.20;99.90;;;;;;4917595;29;20482;-80
2021/12/20 09:24:34;;;;;;;7.60;6.10;;;14.10;99.90;;;;;;4922279;29;20514;-79
2021/12/20 09:27:19;;;;;;;17.37;6.43;;;14.70;99.90;;;;;;4913161;29;20438;-79
2021/12/20 09:30:04;;;;;;;11.40;4.87;;;14.50;99.90;;;;;;4921065;29;20475;-80
2021/12/20 09:32:48;;;;;;;11.30;4.40;;;14.20;99.90;;;;;;4886228;29;20486;-78
2021/12/20 09:35:34;;;;;;;9.13;5.17;;;13.60;99.90;;;;;;4905872;29;20468;-79
2021/12/20 09:38:19;;;;;;;6.73;3.60;;;13.90;99.90;;;;;;4859663;29;20437;-80
2021/12/20 09:41:17;;;;;;;10.67;4.23;;;13.30;99.90;;;;;;4849316;29;20513;-80
2021/12/20 09:44:05;;;;;;;6.53;3.90;;;12.90;99.90;;;;;;4833097;29;20474;-80
2021/12/20 09:46:53;;;;;;;16.00;7.40;;;12.20;99.90;;;;;;4812821;29;20427;-80
2021/12/20 09:49:37;;;;;;;9.83;4.57;;;12.20;99.90;;;;;;4840210;29;20439;-81
2021/12/20 09:52:22;;;;;;;8.93;3.90;;;12.30;99.90;;;;;;4860289;29;20571;-80
2021/12/20 09:55:07;;;;;;;7.00;4.73;;;13.50;99.90;;;;;;4900416;29;20437;-82
2021/12/20 09:57:51;;;;;;;17.83;4.17;;;14.00;99.90;;;;;;4901303;29;20527;-82
2021/12/20 10:00:35;;;;;;;7.57;5.53;;;14.90;99.90;;;;;;4927544;29;20484;-81
2021/12/20 10:03:21;;;;;;;10.17;5.00;;;15.60;99.90;;;;;;4923221;28;20476;-82
2021/12/20 10:06:06;;;;;;;9.30;5.47;;;16.20;99.90;;;;;;4961509;28;20457;-80
2021/12/20 10:08:52;;;;;;;8.50;3.70;;;15.90;99.90;;;;;;4957020;28;20434;-81
2021/12/20 10:11:37;;;;;;;9.43;3.93;;;15.70;99.90;;;;;;4962520;28;20440;-79
2021/12/20 10:14:22;;;;;;;5.43;4.00;;;14.80;99.90;;;;;;4997314;28;20483;-80
2021/12/20 10:17:06;;;;;;;10.33;3.73;;;14.50;99.90;;;;;;4989454;28;20443;-82
2021/12/20 10:19:51;;;;;;;8.20;4.37;;;14.50;99.90;;;;;;5002365;28;20478;-80
2021/12/20 10:22:35;;;;;;;3.87;3.47;;;14.50;99.90;;;;;;4996238;28;20458;-81
2021/12/20 10:25:26;;;;;;;7.03;4.53;;;16.10;99.90;;;;;;4999880;28;20427;-82
2021/12/20 10:28:15;;;;;;;7.80;2.77;;;16.80;98.00;;;;;;5010635;28;20792;-81
2021/12/20 10:31:06;;;;;;;7.80;3.80;;;17.10;94.80;;;;;;5008581;28;20918;-82
2021/12/20 10:33:59;;;;;;;7.23;4.00;;;17.70;92.70;;;;;;5008508;28;20415;-82
2021/12/20 10:36:53;;;;;;;6.73;3.50;;;15.70;95.80;;;;;;5009404;28;20599;-82
2021/12/20 10:39:43;;;;;;;6.73;3.57;;;17.00;94.60;;;;;;5010347;28;20463;-81
2021/12/20 10:42:29;;;;;;;8.30;3.70;;;17.00;92.40;;;;;;5010249;28;20572;-82
2021/12/20 10:45:18;;;;;;;8.43;5.67;;;17.30;92.20;;;;;;5007218;28;20456;-82
2021/12/20 10:48:12;;;;;;;7.63;3.43;;;17.20;91.70;;;;;;4993988;28;20456;-81
2021/12/20 10:50:56;;;;;;;5.80;4.40;;;17.00;92.20;;;;;;5011039;28;20462;-81
2021/12/20 10:53:47;;;;;;;10.23;3.57;;;17.00;91.20;;;;;;5009466;28;20459;-79
2021/12/20 10:56:35;;;;;;;8.00;4.47;;;16.10;92.60;;;;;;4927554;28;20434;-80
2021/12/20 10:59:21;;;;;;;8.47;4.90;;;16.80;92.50;;;;;;4951479;28;20520;-80
2021/12/20 11:05:20;;;;;;;6.47;3.50;;;16.90;91.50;;;;;;4965235;28;20969;-81
2021/12/20 11:11:26;;;;;;;8.77;4.00;;;17.60;88.80;;;;;;4965272;28;20516;-80
2021/12/20 11:14:11;;;;;;;10.97;6.70;;;18.30;85.70;;;;;;4963958;28;20433;-80
2021/12/20 11:16:57;;;;;;;5.77;4.27;;;17.30;85.40;;;;;;4951922;28;20484;-81
2021/12/20 11:19:43;;;;;;;5.10;3.40;;;17.60;86.20;;;;;;4966792;28;20450;-80
2021/12/20 11:22:31;;;;;;;8.07;3.57;;;18.40;83.60;;;;;;4972622;28;20585;-80
2021/12/20 11:25:15;;;;;;;5.10;3.20;;;18.40;79.40;;;;;;4965504;28;20996;-80
2021/12/20 11:27:59;;;;;;;6.20;3.30;;;17.60;80.20;;;;;;5002372;28;20421;-80
2021/12/20 11:30:43;;;;;;;4.90;3.17;;;18.50;79.10;;;;;;4985659;28;20456;-80
2021/12/20 11:33:28;;;;;;;4.00;2.77;;;19.40;75.60;;;;;;5003980;28;20418;-80
2021/12/20 11:36:13;;;;;;;4.60;2.70;;;20.70;73.50;;;;;;5000390;28;20494;-80
2021/12/20 11:38:58;;;;;;;14.73;12.43;;;22.40;69.50;;;;;;4999846;28;20440;-80
2021/12/20 11:41:43;;;;;;;9.43;5.30;;;19.00;66.60;;;;;;5009312;28;20888;-79
2021/12/20 11:44:29;;;;;;;8.47;6.53;;;18.30;73.90;;;;;;4999764;28;20467;-79
2021/12/20 11:47:44;;;;;;;4.60;3.13;;;19.30;73.00;;;;;;5000036;28;20866;-81
2021/12/20 11:50:32;;;;;;;4.33;2.63;;;18.90;71.10;;;;;;4956423;28;20510;-80
2021/12/20 11:53:17;;;;;;;6.23;3.00;;;19.80;70.30;;;;;;4945074;28;20442;-80
2021/12/20 11:56:01;;;;;;;4.60;3.13;;;19.50;67.50;;;;;;4960708;28;20979;-81
2021/12/20 11:58:47;;;;;;;3.80;2.97;;;17.50;65.80;;;;;;4961899;28;20429;-81
2021/12/20 12:01:31;;;;;;;3.27;2.40;;;17.30;72.30;;;;;;4959178;28;20826;-81
2021/12/20 12:04:15;;;;;;;4.37;3.03;;;18.10;70.50;;;;;;4956896;28;20498;-80
2021/12/20 12:07:21;;;;;;;8.53;5.40;;;16.00;66.70;;;;;;4941853;29;20458;-79
2021/12/20 12:10:08;;;;;;;3.07;2.20;;;17.70;69.90;;;;;;4961061;28;20504;-80
2021/12/20 12:13:00;;;;;;;2.20;1.63;;;19.60;63.80;;;;;;4967468;28;20465;-79
2021/12/20 12:16:00;;;;;;;3.20;2.33;;;18.20;61.70;;;;;;4938230;28;20450;-81
2021/12/20 12:18:50;;;;;;;2.30;2.10;;;18.60;64.50;;;;;;4929415;29;20455;-81
2021/12/20 12:21:40;;;;;;;2.50;2.30;;;20.40;62.20;;;;;;4946451;28;20499;-80
2021/12/20 12:24:53;;;;;;;4.33;2.70;;;20.10;59.60;;;;;;4944300;28;20440;-81
2021/12/20 12:27:41;;;;;;;3.50;2.33;;;19.40;58.10;;;;;;4959869;28;20450;-81
2021/12/20 12:30:28;;;;;;;1.97;1.87;;;16.60;59.60;;;;;;4946932;28;20526;-81
2021/12/20 12:33:17;;;;;;;4.37;3.03;;;17.00;63.40;;;;;;4970222;28;20425;-81
2021/12/20 12:36:05;;;;;;;7.17;3.00;;;15.80;63.40;;;;;;4961607;28;20871;-79
2021/12/20 12:38:54;;;;;;;4.00;3.03;;;14.60;65.70;;;;;;4959964;28;20445;-77
2021/12/20 12:41:45;;;;;;;5.17;2.30;;;12.60;73.00;;;;;;4974871;28;20477;-79
2021/12/20 12:44:31;;;;;;;4.70;2.50;;;12.70;73.40;;;;;;4977850;28;20454;-80
2021/12/20 12:47:33;;;;;;;3.93;2.20;;;11.70;75.10;;;;;;4971949;28;20441;-78
2021/12/20 12:50:25;;;;;;;5.10;2.60;;;11.00;76.50;;;;;;5006727;28;20475;-80
2021/12/20 12:53:39;;;;;;;3.53;2.10;;;10.40;78.30;;;;;;5017350;28;20438;-80
2021/12/20 12:56:31;;;;;;;11.00;2.53;;;8.80;83.60;;;;;;5000897;28;20478;-79
2021/12/20 12:59:23;;;;;;;11.00;3.73;;;8.20;90.30;;;;;;4991264;28;20505;-79
2021/12/20 13:02:10;;;;;;;8.20;3.30;;;8.30;95.40;;;;;;5000971;28;20475;-80
2021/12/20 13:05:05;;;;;;;5.63;3.73;;;8.30;94.80;;;;;;5008908;28;20482;-80
2021/12/20 13:07:55;;;;;;;6.10;2.57;;;8.10;97.00;;;;;;5010865;28;20433;-79
2021/12/20 13:10:42;;;;;;;5.30;1.90;;;7.70;99.90;;;;;;5015083;28;20542;-79
2021/12/20 13:13:30;;;;;;;5.10;2.90;;;7.70;99.90;;;;;;5018008;28;20429;-79
2021/12/20 13:16:22;;;;;;;14.17;3.00;;;7.70;99.90;;;;;;5001348;28;20419;-80
2021/12/20 13:19:06;;;;;;;2.30;2.10;;;8.20;99.90;;;;;;4987927;28;20434;-79
2021/12/20 13:21:59;;;;;;;3.47;1.80;;;8.00;99.90;;;;;;5000176;28;20534;-80
2021/12/20 13:24:43;;;;;;;1.93;1.83;;;7.60;99.90;;;;;;4971817;28;20429;-80
2021/12/20 13:27:31;;;;;;;3.07;2.53;;;7.20;99.90;;;;;;5008991;28;20538;-78
2021/12/20 13:30:15;;;;;;;4.30;1.87;;;7.50;99.90;;;;;;5004703;28;20419;-79
2021/12/20 13:32:59;;;;;;;5.73;2.13;;;7.40;99.90;;;;;;4986158;28;20436;-79
2021/12/20 13:35:44;;;;;;;2.60;2.30;;;7.40;99.90;;;;;;4998538;28;20432;-80
2021/12/20 13:38:33;;;;;;;2.00;1.90;;;7.10;99.90;;;;;;5004064;28;20466;-80
2021/12/20 13:41:21;;;;;;;4.53;2.60;;;7.30;99.90;;;;;;4998766;28;20479;-79
2021/12/20 13:44:13;;;;;;;7.57;3.23;;;7.80;99.90;;;;;;4995991;28;20439;-80
2021/12/20 13:47:01;;;;;;;5.10;1.90;;;7.30;99.90;;;;;;5013665;28;20410;-79
2021/12/20 13:49:45;;;;;;;6.40;3.93;;;6.90;99.90;;;;;;5004017;28;20435;-79
2021/12/20 13:52:29;;;;;;;2.17;1.97;;;7.30;99.90;;;;;;5005388;28;20847;-79
2021/12/20 13:55:13;;;;;;;5.70;2.00;;;7.70;99.90;;;;;;4994274;28;20414;-77
2021/12/20 13:57:58;;;;;;;10.93;2.47;;;8.00;99.90;;;;;;5006293;28;20413;-80
2021/12/20 14:00:44;;;;;;;4.03;2.50;;;8.10;99.90;;;;;;4994029;28;20448;-79
2021/12/20 14:03:28;;;;;;;2.60;1.70;;;8.10;99.90;;;;;;5005852;28;20454;-80
2021/12/20 14:06:34;;;;;;;2.37;2.13;;;8.40;99.90;;;;;;4996815;28;20469;-79
2021/12/20 14:09:23;;;;;;;8.60;5.13;;;8.40;99.90;;;;;;4987258;28;20403;-80
2021/12/20 14:12:12;;;;;;;3.93;2.73;;;7.90;99.90;;;;;;5008019;28;20414;-79
2021/12/20 14:14:59;;;;;;;11.40;2.93;;;7.90;99.90;;;;;;5009639;28;20740;-78
2021/12/20 14:18:03;;;;;;;4.73;2.90;;;8.00;99.90;;;;;;4984776;28;20495;-78
2021/12/20 14:21:00;;;;;;;3.90;3.20;;;7.80;99.90;;;;;;4988449;28;20398;-78
2021/12/20 14:23:49;;;;;;;3.60;2.20;;;7.50;99.90;;;;;;5002449;28;20481;-78
2021/12/20 14:26:37;;;;;;;2.73;2.00;;;7.30;99.90;;;;;;5007551;28;20765;-78
2021/12/20 14:29:30;;;;;;;5.20;2.40;;;6.70;99.90;;;;;;5002439;28;20455;-78
2021/12/20 14:32:36;;;;;;;3.50;2.10;;;7.20;99.90;;;;;;5005221;28;20413;-80
2021/12/20 14:35:36;;;;;;;3.87;2.97;;;7.40;99.90;;;;;;4970186;28;20402;-80
2021/12/20 14:38:40;;;;;;;4.60;2.70;;;7.10;99.90;;;;;;4980609;28;20859;-78
2021/12/20 14:41:30;;;;;;;4.30;2.97;;;7.10;99.90;;;;;;4985792;28;20533;-78
2021/12/20 14:44:22;;;;;;;5.27;2.37;;;6.90;99.90;;;;;;4990246;28;20394;-79
2021/12/20 14:47:12;;;;;;;5.63;2.60;;;7.10;99.90;;;;;;5006785;28;20426;-78
2021/12/20 14:50:03;;;;;;;3.30;2.37;;;7.00;99.90;;;;;;5016135;28;20422;-80